METAR Data
IDs: Format: Raw Decoded Include TAF

Data at: 1133 UTC 28 Sep 2021

OPIS 281125Z 31004KT 6000 FEW030TCU 33/22 Q1007 TEMPO 31015G30KT 3000 TSRA FEW030CB